sensor_id;sensor_type;location;lat;lon;timestamp;pressure;altitude;pressure_sealevel;temperature;humidity
18819;BME280;9537;45.594;9.294;2022-07-18T00:00:37;100179.50;;;31.06;38.47
18819;BME280;9537;45.594;9.294;2022-07-18T00:01:39;100184.44;;;31.04;38.05
18819;BME280;9537;45.594;9.294;2022-07-18T00:02:40;100182.03;;;31.03;38.25
18819;BME280;9537;45.594;9.294;2022-07-18T00:03:43;100184.50;;;30.99;38.63
18819;BME280;9537;45.594;9.294;2022-07-18T00:04:44;100176.31;;;30.99;38.62
18819;BME280;9537;45.594;9.294;2022-07-18T00:05:46;100177.66;;;31.02;38.34
18819;BME280;9537;45.594;9.294;2022-07-18T00:06:47;100178.50;;;31.02;38.27
18819;BME280;9537;45.594;9.294;2022-07-18T00:07:50;100175.16;;;31.05;38.32
18819;BME280;9537;45.594;9.294;2022-07-18T00:08:51;100186.06;;;31.05;38.31
18819;BME280;9537;45.594;9.294;2022-07-18T00:09:53;100183.63;;;31.04;37.93
18819;BME280;9537;45.594;9.294;2022-07-18T00:10:54;100180.97;;;30.98;38.52
18819;BME280;9537;45.594;9.294;2022-07-18T00:11:56;100186.75;;;30.97;38.24
18819;BME280;9537;45.594;9.294;2022-07-18T00:12:57;100184.59;;;30.94;38.04
18819;BME280;9537;45.594;9.294;2022-07-18T00:13:59;100183.81;;;30.93;38.72
18819;BME280;9537;45.594;9.294;2022-07-18T00:15:00;100177.31;;;30.89;38.23
18819;BME280;9537;45.594;9.294;2022-07-18T00:16:02;100178.91;;;30.90;38.31
18819;BME280;9537;45.594;9.294;2022-07-18T00:17:04;100181.94;;;30.89;38.38
18819;BME280;9537;45.594;9.294;2022-07-18T00:18:07;100179.50;;;30.87;38.20
18819;BME280;9537;45.594;9.294;2022-07-18T00:19:10;100173.56;;;30.85;38.50
18819;BME280;9537;45.594;9.294;2022-07-18T00:20:12;100173.25;;;30.87;38.12
18819;BME280;9537;45.594;9.294;2022-07-18T00:21:13;100176.50;;;30.89;37.99
18819;BME280;9537;45.594;9.294;2022-07-18T00:22:15;100175.16;;;30.86;38.30
18819;BME280;9537;45.594;9.294;2022-07-18T00:23:16;100175.22;;;30.81;38.34
18819;BME280;9537;45.594;9.294;2022-07-18T00:24:18;100173.88;;;30.79;38.21
18819;BME280;9537;45.594;9.294;2022-07-18T00:25:19;100184.78;;;30.79;38.37
18819;BME280;9537;45.594;9.294;2022-07-18T00:26:21;100176.34;;;30.80;38.26
18819;BME280;9537;45.594;9.294;2022-07-18T00:27:22;100183.41;;;30.81;38.73
18819;BME280;9537;45.594;9.294;2022-07-18T00:28:24;100185.66;;;30.79;38.27
18819;BME280;9537;45.594;9.294;2022-07-18T00:29:25;100181.81;;;30.80;38.19
18819;BME280;9537;45.594;9.294;2022-07-18T00:30:27;100175.78;;;30.78;38.57
18819;BME280;9537;45.594;9.294;2022-07-18T00:31:28;100182.66;;;30.75;38.34
18819;BME280;9537;45.594;9.294;2022-07-18T00:32:30;100185.38;;;30.75;38.67
18819;BME280;9537;45.594;9.294;2022-07-18T00:33:32;100187.88;;;30.72;38.47
18819;BME280;9537;45.594;9.294;2022-07-18T00:34:35;100192.00;;;30.69;38.82
18819;BME280;9537;45.594;9.294;2022-07-18T00:35:37;100190.97;;;30.65;38.90
18819;BME280;9537;45.594;9.294;2022-07-18T00:36:38;100189.06;;;30.66;38.65
18819;BME280;9537;45.594;9.294;2022-07-18T00:37:40;100192.59;;;30.66;38.66
18819;BME280;9537;45.594;9.294;2022-07-18T00:38:41;100192.59;;;30.66;38.66
18819;BME280;9537;45.594;9.294;2022-07-18T00:39:43;100187.72;;;30.63;38.57
18819;BME280;9537;45.594;9.294;2022-07-18T00:40:44;100188.00;;;30.62;38.96
18819;BME280;9537;45.594;9.294;2022-07-18T00:41:47;100192.44;;;30.58;38.94
18819;BME280;9537;45.594;9.294;2022-07-18T00:42:48;100195.75;;;30.55;39.00
18819;BME280;9537;45.594;9.294;2022-07-18T00:43:52;100190.00;;;30.56;39.15
18819;BME280;9537;45.594;9.294;2022-07-18T00:44:53;100193.56;;;30.57;38.81
18819;BME280;9537;45.594;9.294;2022-07-18T00:45:55;100188.09;;;30.57;39.21
18819;BME280;9537;45.594;9.294;2022-07-18T00:46:59;100189.19;;;30.56;39.00
18819;BME280;9537;45.594;9.294;2022-07-18T00:48:05;100187.06;;;30.52;39.14
18819;BME280;9537;45.594;9.294;2022-07-18T00:49:05;100190.09;;;30.51;39.21
18819;BME280;9537;45.594;9.294;2022-07-18T00:50:10;100192.00;;;30.50;39.08
18819;BME280;9537;45.594;9.294;2022-07-18T00:51:11;100193.09;;;30.49;38.86
18819;BME280;9537;45.594;9.294;2022-07-18T00:52:13;100190.94;;;30.46;38.88
18819;BME280;9537;45.594;9.294;2022-07-18T00:53:15;100186.63;;;30.45;39.31
18819;BME280;9537;45.594;9.294;2022-07-18T00:54:17;100180.91;;;30.42;39.39
18819;BME280;9537;45.594;9.294;2022-07-18T00:55:19;100188.28;;;30.41;39.15
18819;BME280;9537;45.594;9.294;2022-07-18T00:56:20;100191.53;;;30.43;39.04
18819;BME280;9537;45.594;9.294;2022-07-18T00:57:23;100179.53;;;30.44;39.29
18819;BME280;9537;45.594;9.294;2022-07-18T00:58:25;100184.69;;;30.46;38.80
18819;BME280;9537;45.594;9.294;2022-07-18T00:59:27;100184.97;;;30.44;39.36
18819;BME280;9537;45.594;9.294;2022-07-18T01:00:43;100187.25;;;30.37;39.10
18819;BME280;9537;45.594;9.294;2022-07-18T01:02:02;100188.66;;;30.35;39.81
18819;BME280;9537;45.594;9.294;2022-07-18T01:03:04;100186.78;;;30.30;39.35
18819;BME280;9537;45.594;9.294;2022-07-18T01:04:05;100189.25;;;30.32;39.43
18819;BME280;9537;45.594;9.294;2022-07-18T01:05:09;100183.56;;;30.28;39.36
18819;BME280;9537;45.594;9.294;2022-07-18T01:06:10;100185.69;;;30.31;39.59
18819;BME280;9537;45.594;9.294;2022-07-18T01:07:12;100184.06;;;30.30;39.46
18819;BME280;9537;45.594;9.294;2022-07-18T01:08:13;100184.06;;;30.30;39.23
18819;BME280;9537;45.594;9.294;2022-07-18T01:09:16;100183.84;;;30.26;39.57
18819;BME280;9537;45.594;9.294;2022-07-18T01:10:18;100183.03;;;30.26;39.43
18819;BME280;9537;45.594;9.294;2022-07-18T01:11:20;100189.59;;;30.25;39.60
18819;BME280;9537;45.594;9.294;2022-07-18T01:12:22;100192.06;;;30.21;39.39
18819;BME280;9537;45.594;9.294;2022-07-18T01:13:24;100185.78;;;30.21;39.41
18819;BME280;9537;45.594;9.294;2022-07-18T01:14:25;100191.53;;;30.19;39.82
18819;BME280;9537;45.594;9.294;2022-07-18T01:15:28;100191.00;;;30.17;39.90
18819;BME280;9537;45.594;9.294;2022-07-18T01:16:29;100187.75;;;30.15;39.77
18819;BME280;9537;45.594;9.294;2022-07-18T01:17:31;100195.41;;;30.13;40.17
18819;BME280;9537;45.594;9.294;2022-07-18T01:18:33;100191.88;;;30.13;39.98
18819;BME280;9537;45.594;9.294;2022-07-18T01:19:35;100188.06;;;30.14;39.62
18819;BME280;9537;45.594;9.294;2022-07-18T01:20:39;100191.06;;;30.12;40.05
18819;BME280;9537;45.594;9.294;2022-07-18T01:21:40;100188.34;;;30.12;39.78
18819;BME280;9537;45.594;9.294;2022-07-18T01:22:42;100193.50;;;30.14;39.76
18819;BME280;9537;45.594;9.294;2022-07-18T01:23:43;100190.78;;;30.14;39.66
18819;BME280;9537;45.594;9.294;2022-07-18T01:24:46;100192.69;;;30.13;39.46
18819;BME280;9537;45.594;9.294;2022-07-18T01:25:47;100191.66;;;30.09;40.01
18819;BME280;9537;45.594;9.294;2022-07-18T01:26:49;100191.38;;;30.11;40.01
18819;BME280;9537;45.594;9.294;2022-07-18T01:27:50;100195.75;;;30.06;39.68
18819;BME280;9537;45.594;9.294;2022-07-18T01:28:52;100195.19;;;30.09;39.79
18819;BME280;9537;45.594;9.294;2022-07-18T01:29:53;100195.75;;;30.06;39.66
18819;BME280;9537;45.594;9.294;2022-07-18T01:30:55;100195.00;;;30.01;39.99
18819;BME280;9537;45.594;9.294;2022-07-18T01:31:56;100196.91;;;30.00;40.07
18819;BME280;9537;45.594;9.294;2022-07-18T01:32:59;100195.81;;;30.01;39.62
18819;BME280;9537;45.594;9.294;2022-07-18T01:34:01;100195.88;;;29.96;40.15
18819;BME280;9537;45.594;9.294;2022-07-18T01:35:04;100196.91;;;30.00;40.08
18819;BME280;9537;45.594;9.294;2022-07-18T01:36:08;100194.19;;;30.00;39.43
18819;BME280;9537;45.594;9.294;2022-07-18T01:37:10;100190.44;;;29.96;39.88
18819;BME280;9537;45.594;9.294;2022-07-18T01:38:12;100197.53;;;29.92;40.25
18819;BME280;9537;45.594;9.294;2022-07-18T01:39:14;100193.78;;;29.88;40.46
18819;BME280;9537;45.594;9.294;2022-07-18T01:40:15;100191.91;;;29.83;40.62
18819;BME280;9537;45.594;9.294;2022-07-18T01:41:17;100194.41;;;29.80;40.99
18819;BME280;9537;45.594;9.294;2022-07-18T01:42:19;100193.06;;;29.77;40.58
18819;BME280;9537;45.594;9.294;2022-07-18T01:43:20;100191.47;;;29.76;40.61
18819;BME280;9537;45.594;9.294;2022-07-18T01:44:22;100192.84;;;29.74;40.58
18819;BME280;9537;45.594;9.294;2022-07-18T01:45:23;100190.16;;;29.69;40.85
18819;BME280;9537;45.594;9.294;2022-07-18T01:46:25;100194.22;;;29.71;41.14
18819;BME280;9537;45.594;9.294;2022-07-18T01:47:26;100199.13;;;29.69;40.98
18819;BME280;9537;45.594;9.294;2022-07-18T01:48:28;100196.72;;;29.68;41.45
18819;BME280;9537;45.594;9.294;2022-07-18T01:49:29;100197.00;;;29.66;40.99
18819;BME280;9537;45.594;9.294;2022-07-18T01:50:31;100199.19;;;29.64;41.07
18819;BME280;9537;45.594;9.294;2022-07-18T01:51:33;100196.50;;;29.59;41.09
18819;BME280;9537;45.594;9.294;2022-07-18T01:52:35;100194.03;;;29.57;41.31
18819;BME280;9537;45.594;9.294;2022-07-18T01:53:37;100195.72;;;29.53;41.68
18819;BME280;9537;45.594;9.294;2022-07-18T01:54:39;100208.25;;;29.49;41.63
18819;BME280;9537;45.594;9.294;2022-07-18T01:55:40;100200.69;;;29.46;41.56
18819;BME280;9537;45.594;9.294;2022-07-18T01:56:42;100193.88;;;29.44;41.89
18819;BME280;9537;45.594;9.294;2022-07-18T01:57:43;100190.13;;;29.39;41.86
18819;BME280;9537;45.594;9.294;2022-07-18T02:00:48;100196.41;;;29.35;41.91
18819;BME280;9537;45.594;9.294;2022-07-18T02:01:50;100200.25;;;29.34;41.99
18819;BME280;9537;45.594;9.294;2022-07-18T02:02:52;100192.66;;;29.31;42.06
18819;BME280;9537;45.594;9.294;2022-07-18T02:03:54;100189.63;;;29.32;41.75
18819;BME280;9537;45.594;9.294;2022-07-18T02:04:55;100196.19;;;29.31;41.69
18819;BME280;9537;45.594;9.294;2022-07-18T02:06:03;100194.59;;;29.25;42.02
18819;BME280;9537;45.594;9.294;2022-07-18T02:07:05;100191.88;;;29.25;42.20
18819;BME280;9537;45.594;9.294;2022-07-18T02:08:07;100196.50;;;29.25;42.28
18819;BME280;9537;45.594;9.294;2022-07-18T02:09:09;100196.00;;;29.17;42.41
18819;BME280;9537;45.594;9.294;2022-07-18T02:10:13;100197.63;;;29.18;42.73
18819;BME280;9537;45.594;9.294;2022-07-18T02:11:15;100197.63;;;29.18;42.56
18819;BME280;9537;45.594;9.294;2022-07-18T02:12:17;100188.94;;;29.16;42.60
18819;BME280;9537;45.594;9.294;2022-07-18T02:13:19;100186.47;;;29.20;42.30
18819;BME280;9537;45.594;9.294;2022-07-18T02:14:21;100191.38;;;29.18;42.82
18819;BME280;9537;45.594;9.294;2022-07-18T02:15:22;100189.53;;;29.13;42.55
18819;BME280;9537;45.594;9.294;2022-07-18T02:16:25;100190.59;;;29.12;42.38
18819;BME280;9537;45.594;9.294;2022-07-18T02:17:27;100189.25;;;29.10;42.56
18819;BME280;9537;45.594;9.294;2022-07-18T02:18:29;100190.88;;;29.16;42.32
18819;BME280;9537;45.594;9.294;2022-07-18T02:19:33;100192.75;;;29.15;42.37
18819;BME280;9537;45.594;9.294;2022-07-18T02:20:35;100186.81;;;29.13;42.52
18819;BME280;9537;45.594;9.294;2022-07-18T02:21:37;100187.09;;;29.07;42.66
18819;BME280;9537;45.594;9.294;2022-07-18T02:22:39;100192.84;;;29.05;42.77
18819;BME280;9537;45.594;9.294;2022-07-18T02:23:42;100186.06;;;29.03;42.67
18819;BME280;9537;45.594;9.294;2022-07-18T02:24:43;100190.94;;;29.06;42.55
18819;BME280;9537;45.594;9.294;2022-07-18T02:25:45;100188.19;;;29.06;42.79
18819;BME280;9537;45.594;9.294;2022-07-18T02:26:46;100192.28;;;29.08;42.66
18819;BME280;9537;45.594;9.294;2022-07-18T02:27:48;100187.66;;;29.04;42.70
18819;BME280;9537;45.594;9.294;2022-07-18T02:28:49;100185.72;;;29.09;42.54
18819;BME280;9537;45.594;9.294;2022-07-18T02:29:51;100192.25;;;29.13;42.12
18819;BME280;9537;45.594;9.294;2022-07-18T02:30:52;100193.63;;;29.11;42.58
18819;BME280;9537;45.594;9.294;2022-07-18T02:31:54;100195.53;;;29.10;42.56
18819;BME280;9537;45.594;9.294;2022-07-18T02:32:55;100188.47;;;29.04;42.42
18819;BME280;9537;45.594;9.294;2022-07-18T02:33:57;100191.72;;;29.01;42.45
18819;BME280;9537;45.594;9.294;2022-07-18T02:34:59;100186.88;;;28.93;42.94
18819;BME280;9537;45.594;9.294;2022-07-18T02:36:01;100188.00;;;28.92;42.77
18819;BME280;9537;45.594;9.294;2022-07-18T02:37:03;100193.19;;;28.88;43.00
18819;BME280;9537;45.594;9.294;2022-07-18T02:38:06;100192.41;;;28.83;43.24
18819;BME280;9537;45.594;9.294;2022-07-18T02:39:08;100186.75;;;28.74;43.71
18819;BME280;9537;45.594;9.294;2022-07-18T02:40:11;100186.19;;;28.72;43.93
18819;BME280;9537;45.594;9.294;2022-07-18T02:41:13;100185.97;;;28.63;44.13
18819;BME280;9537;45.594;9.294;2022-07-18T02:42:14;100185.50;;;28.56;44.49
18819;BME280;9537;45.594;9.294;2022-07-18T02:43:16;100186.88;;;28.48;44.51
18819;BME280;9537;45.594;9.294;2022-07-18T02:44:17;100183.59;;;28.51;44.62
18819;BME280;9537;45.594;9.294;2022-07-18T02:45:19;100179.28;;;28.45;44.70
18819;BME280;9537;45.594;9.294;2022-07-18T02:46:19;100188.25;;;28.46;44.87
18819;BME280;9537;45.594;9.294;2022-07-18T02:47:21;100186.31;;;28.41;45.05
18819;BME280;9537;45.594;9.294;2022-07-18T02:48:23;100189.91;;;28.42;45.08
18819;BME280;9537;45.594;9.294;2022-07-18T02:49:25;100190.44;;;28.39;45.37
18819;BME280;9537;45.594;9.294;2022-07-18T02:50:28;100195.88;;;28.39;45.12
18819;BME280;9537;45.594;9.294;2022-07-18T02:51:32;100190.16;;;28.35;45.38
18819;BME280;9537;45.594;9.294;2022-07-18T02:52:33;100192.06;;;28.35;45.40
18819;BME280;9537;45.594;9.294;2022-07-18T02:53:36;100188.81;;;28.33;45.57
18819;BME280;9537;45.594;9.294;2022-07-18T02:54:38;100188.84;;;28.27;45.70
18819;BME280;9537;45.594;9.294;2022-07-18T02:55:40;100189.91;;;28.26;45.69
18819;BME280;9537;45.594;9.294;2022-07-18T02:56:41;100195.34;;;28.21;45.92
18819;BME280;9537;45.594;9.294;2022-07-18T02:57:43;100186.69;;;28.19;46.03
18819;BME280;9537;45.594;9.294;2022-07-18T02:58:44;100183.19;;;28.14;46.15
18819;BME280;9537;45.594;9.294;2022-07-18T02:59:46;100183.44;;;28.12;46.13
18819;BME280;9537;45.594;9.294;2022-07-18T03:00:48;100192.16;;;28.09;46.30
18819;BME280;9537;45.594;9.294;2022-07-18T03:01:49;100197.84;;;28.13;46.17
18819;BME280;9537;45.594;9.294;2022-07-18T03:02:51;100193.50;;;28.12;46.07
18819;BME280;9537;45.594;9.294;2022-07-18T03:03:52;100187.53;;;28.10;46.41
18819;BME280;9537;45.594;9.294;2022-07-18T03:04:54;100181.84;;;28.06;46.47
18819;BME280;9537;45.594;9.294;2022-07-18T03:05:56;100190.78;;;28.06;46.53
18819;BME280;9537;45.594;9.294;2022-07-18T03:06:57;100182.13;;;28.04;46.59
18819;BME280;9537;45.594;9.294;2022-07-18T03:07:59;100191.91;;;28.05;46.62
18819;BME280;9537;45.594;9.294;2022-07-18T03:09:02;100194.88;;;28.04;46.77
18819;BME280;9537;45.594;9.294;2022-07-18T03:10:06;100184.84;;;28.04;46.63
18819;BME280;9537;45.594;9.294;2022-07-18T03:11:07;100188.38;;;28.05;46.77
18819;BME280;9537;45.594;9.294;2022-07-18T03:12:09;100191.34;;;28.03;46.56
18819;BME280;9537;45.594;9.294;2022-07-18T03:13:10;100185.66;;;28.00;47.15
18819;BME280;9537;45.594;9.294;2022-07-18T03:14:13;100190.28;;;27.99;46.97
18819;BME280;9537;45.594;9.294;2022-07-18T03:15:14;100190.28;;;27.94;47.03
18819;BME280;9537;45.594;9.294;2022-07-18T03:16:16;100193.56;;;27.91;47.14
18819;BME280;9537;45.594;9.294;2022-07-18T03:17:17;100198.19;;;27.85;47.48
18819;BME280;9537;45.594;9.294;2022-07-18T03:18:19;100202.50;;;27.87;47.25
18819;BME280;9537;45.594;9.294;2022-07-18T03:19:20;100195.47;;;27.91;47.54
18819;BME280;9537;45.594;9.294;2022-07-18T03:20:22;100201.41;;;27.93;47.38
18819;BME280;9537;45.594;9.294;2022-07-18T03:21:23;100200.34;;;27.94;47.32
18819;BME280;9537;45.594;9.294;2022-07-18T03:22:25;100195.16;;;27.97;47.39
18819;BME280;9537;45.594;9.294;2022-07-18T03:23:26;100201.16;;;27.99;46.87
18819;BME280;9537;45.594;9.294;2022-07-18T03:24:29;100210.09;;;28.00;47.04
18819;BME280;9537;45.594;9.294;2022-07-18T03:25:31;100204.66;;;28.00;47.28
18819;BME280;9537;45.594;9.294;2022-07-18T03:26:32;100213.34;;;27.97;47.35
18819;BME280;9537;45.594;9.294;2022-07-18T03:27:34;100212.81;;;27.95;47.40
18819;BME280;9537;45.594;9.294;2022-07-18T03:28:35;100209.00;;;28.01;47.08
18819;BME280;9537;45.594;9.294;2022-07-18T03:29:37;100215.78;;;28.03;47.01
18819;BME280;9537;45.594;9.294;2022-07-18T03:30:39;100213.34;;;27.97;47.09
18819;BME280;9537;45.594;9.294;2022-07-18T03:31:39;100219.34;;;27.99;47.12
18819;BME280;9537;45.594;9.294;2022-07-18T03:32:42;100221.75;;;27.95;47.09
18819;BME280;9537;45.594;9.294;2022-07-18T03:33:43;100213.38;;;27.92;47.58
18819;BME280;9537;45.594;9.294;2022-07-18T03:34:45;100219.91;;;27.91;47.55
18819;BME280;9537;45.594;9.294;2022-07-18T03:35:48;100223.97;;;27.88;47.85
18819;BME280;9537;45.594;9.294;2022-07-18T03:36:48;100221.25;;;27.88;47.91
18819;BME280;9537;45.594;9.294;2022-07-18T03:37:50;100219.09;;;27.80;48.26
18819;BME280;9537;45.594;9.294;2022-07-18T03:38:51;100223.94;;;27.78;48.41
18819;BME280;9537;45.594;9.294;2022-07-18T03:39:55;100213.88;;;27.78;48.33
18819;BME280;9537;45.594;9.294;2022-07-18T03:40:56;100216.59;;;27.78;48.17
18819;BME280;9537;45.594;9.294;2022-07-18T03:41:58;100223.13;;;27.77;48.46
18819;BME280;9537;45.594;9.294;2022-07-18T03:42:59;100217.69;;;27.77;48.46
18819;BME280;9537;45.594;9.294;2022-07-18T03:44:01;100221.00;;;27.79;48.23
18819;BME280;9537;45.594;9.294;2022-07-18T03:45:02;100221.00;;;27.79;48.44
18819;BME280;9537;45.594;9.294;2022-07-18T03:46:05;100218.00;;;27.81;48.37
18819;BME280;9537;45.594;9.294;2022-07-18T03:47:06;100219.91;;;27.85;48.22
18819;BME280;9537;45.594;9.294;2022-07-18T03:48:08;100219.91;;;27.85;48.25
18819;BME280;9537;45.594;9.294;2022-07-18T03:49:09;100220.69;;;27.86;48.28
18819;BME280;9537;45.594;9.294;2022-07-18T03:50:11;100219.09;;;27.85;48.22
18819;BME280;9537;45.594;9.294;2022-07-18T03:51:12;100214.72;;;27.84;48.37
18819;BME280;9537;45.594;9.294;2022-07-18T03:52:14;100216.88;;;27.87;48.23
18819;BME280;9537;45.594;9.294;2022-07-18T03:53:15;100217.19;;;27.85;48.20
18819;BME280;9537;45.594;9.294;2022-07-18T03:54:17;100218.28;;;27.84;48.22
18819;BME280;9537;45.594;9.294;2022-07-18T03:55:20;100211.19;;;27.83;48.33
18819;BME280;9537;45.594;9.294;2022-07-18T03:56:22;100212.84;;;27.84;48.33
18819;BME280;9537;45.594;9.294;2022-07-18T03:57:23;100208.22;;;27.85;48.37
18819;BME280;9537;45.594;9.294;2022-07-18T03:58:25;100218.00;;;27.86;48.49
18819;BME280;9537;45.594;9.294;2022-07-18T03:59:26;100212.00;;;27.89;48.51
18819;BME280;9537;45.594;9.294;2022-07-18T04:00:28;100209.84;;;27.86;48.56
18819;BME280;9537;45.594;9.294;2022-07-18T04:01:29;100212.56;;;27.86;48.72
18819;BME280;9537;45.594;9.294;2022-07-18T04:02:31;100212.31;;;27.88;48.58
18819;BME280;9537;45.594;9.294;2022-07-18T04:03:33;100210.41;;;27.88;48.35
18819;BME280;9537;45.594;9.294;2022-07-18T04:04:35;100214.72;;;27.89;48.35
18819;BME280;9537;45.594;9.294;2022-07-18T04:05:35;100207.13;;;27.91;48.31
18819;BME280;9537;45.594;9.294;2022-07-18T04:06:37;100220.69;;;27.91;48.37
18819;BME280;9537;45.594;9.294;2022-07-18T04:07:40;100220.69;;;27.91;48.79
18819;BME280;9537;45.594;9.294;2022-07-18T04:08:41;100211.47;;;27.92;48.60
18819;BME280;9537;45.594;9.294;2022-07-18T04:09:43;100218.78;;;27.92;48.66
18819;BME280;9537;45.594;9.294;2022-07-18T04:10:45;100213.91;;;27.94;48.65
18819;BME280;9537;45.594;9.294;2022-07-18T04:11:47;100218.53;;;27.93;48.61
18819;BME280;9537;45.594;9.294;2022-07-18T04:12:50;100207.94;;;27.92;48.59
18819;BME280;9537;45.594;9.294;2022-07-18T04:13:53;100212.81;;;27.90;48.45
18819;BME280;9537;45.594;9.294;2022-07-18T04:14:54;100211.75;;;27.91;48.55
18819;BME280;9537;45.594;9.294;2022-07-18T04:15:56;100212.56;;;27.91;48.78
18819;BME280;9537;45.594;9.294;2022-07-18T04:16:57;100220.16;;;27.89;48.74
18819;BME280;9537;45.594;9.294;2022-07-18T04:17:59;100209.59;;;27.88;48.70
18819;BME280;9537;45.594;9.294;2022-07-18T04:19:00;100220.16;;;27.89;48.74
18819;BME280;9537;45.594;9.294;2022-07-18T04:20:02;100216.63;;;27.83;48.85
18819;BME280;9537;45.594;9.294;2022-07-18T04:21:04;100214.47;;;27.85;48.79
18819;BME280;9537;45.594;9.294;2022-07-18T04:22:06;100218.28;;;27.84;48.95
18819;BME280;9537;45.594;9.294;2022-07-18T04:23:08;100224.50;;;27.90;49.05
18819;BME280;9537;45.594;9.294;2022-07-18T04:24:10;100220.16;;;27.89;48.91
18819;BME280;9537;45.594;9.294;2022-07-18T04:25:12;100222.59;;;27.85;48.84
18819;BME280;9537;45.594;9.294;2022-07-18T04:26:15;100223.72;;;27.84;48.90
18819;BME280;9537;45.594;9.294;2022-07-18T04:27:16;100225.88;;;27.82;48.98
18819;BME280;9537;45.594;9.294;2022-07-18T04:28:18;100224.47;;;27.75;48.94
18819;BME280;9537;45.594;9.294;2022-07-18T04:29:19;100222.91;;;27.79;48.90
18819;BME280;9537;45.594;9.294;2022-07-18T04:30:23;100223.13;;;27.77;48.76
18819;BME280;9537;45.594;9.294;2022-07-18T04:31:25;100222.31;;;27.72;48.77
18819;BME280;9537;45.594;9.294;2022-07-18T04:32:27;100222.59;;;27.70;49.15
18819;BME280;9537;45.594;9.294;2022-07-18T04:33:28;100225.56;;;27.69;49.22
18819;BME280;9537;45.594;9.294;2022-07-18T04:34:30;100223.69;;;27.69;49.30
18819;BME280;9537;45.594;9.294;2022-07-18T04:35:31;100221.75;;;27.70;49.44
18819;BME280;9537;45.594;9.294;2022-07-18T04:36:33;100222.88;;;27.69;49.47
18819;BME280;9537;45.594;9.294;2022-07-18T04:37:34;100225.56;;;27.69;49.34
18819;BME280;9537;45.594;9.294;2022-07-18T04:38:36;100224.22;;;27.71;49.31
18819;BME280;9537;45.594;9.294;2022-07-18T04:39:39;100228.56;;;27.72;49.40
18819;BME280;9537;45.594;9.294;2022-07-18T04:40:40;100225.31;;;27.70;49.42
18819;BME280;9537;45.594;9.294;2022-07-18T04:41:43;100225.84;;;27.72;49.50
18819;BME280;9537;45.594;9.294;2022-07-18T04:42:44;100229.66;;;27.71;49.65
18819;BME280;9537;45.594;9.294;2022-07-18T04:43:46;100225.56;;;27.69;49.55
18819;BME280;9537;45.594;9.294;2022-07-18T04:44:48;100228.03;;;27.65;49.68
18819;BME280;9537;45.594;9.294;2022-07-18T04:45:50;100224.50;;;27.65;49.48
18819;BME280;9537;45.594;9.294;2022-07-18T04:46:52;100228.84;;;27.66;49.66
18819;BME280;9537;45.594;9.294;2022-07-18T04:47:53;100226.94;;;27.66;49.46
18819;BME280;9537;45.594;9.294;2022-07-18T04:48:56;100238.88;;;27.65;49.69
18819;BME280;9537;45.594;9.294;2022-07-18T04:49:58;100234.53;;;27.64;49.55
18819;BME280;9537;45.594;9.294;2022-07-18T04:50:59;100235.38;;;27.65;49.76
18819;BME280;9537;45.594;9.294;2022-07-18T04:52:01;100239.69;;;27.66;49.67
18819;BME280;9537;45.594;9.294;2022-07-18T04:53:02;100239.16;;;27.63;49.85
18819;BME280;9537;45.594;9.294;2022-07-18T04:54:04;100241.03;;;27.63;50.10
18819;BME280;9537;45.594;9.294;2022-07-18T04:55:06;100236.16;;;27.65;50.18
18819;BME280;9537;45.594;9.294;2022-07-18T04:56:08;100246.47;;;27.63;50.14
18819;BME280;9537;45.594;9.294;2022-07-18T04:57:11;100245.38;;;27.64;50.27
18819;BME280;9537;45.594;9.294;2022-07-18T04:58:15;100235.91;;;27.61;50.55
18819;BME280;9537;45.594;9.294;2022-07-18T04:59:17;100242.69;;;27.59;50.46
18819;BME280;9537;45.594;9.294;2022-07-18T05:00:20;100242.13;;;27.57;50.54
18819;BME280;9537;45.594;9.294;2022-07-18T05:01:22;100244.56;;;27.58;50.53
18819;BME280;9537;45.594;9.294;2022-07-18T05:02:24;100239.69;;;27.55;50.52
18819;BME280;9537;45.594;9.294;2022-07-18T05:03:25;100234.25;;;27.60;50.48
18819;BME280;9537;45.594;9.294;2022-07-18T05:04:27;100250.00;;;27.58;50.50
18819;BME280;9537;45.594;9.294;2022-07-18T05:05:29;100249.72;;;27.55;50.68
18819;BME280;9537;45.594;9.294;2022-07-18T05:06:31;100244.31;;;27.55;51.03
18819;BME280;9537;45.594;9.294;2022-07-18T05:07:32;100243.78;;;27.53;50.93
18819;BME280;9537;45.594;9.294;2022-07-18T05:08:34;100238.59;;;27.51;50.91
18819;BME280;9537;45.594;9.294;2022-07-18T05:09:35;100243.78;;;27.53;51.00
18819;BME280;9537;45.594;9.294;2022-07-18T05:10:37;100247.00;;;27.55;50.78
18819;BME280;9537;45.594;9.294;2022-07-18T05:11:38;100246.50;;;27.53;51.19
18819;BME280;9537;45.594;9.294;2022-07-18T05:12:43;100236.69;;;27.52;51.18
18819;BME280;9537;45.594;9.294;2022-07-18T05:13:44;100232.09;;;27.52;51.11
18819;BME280;9537;45.594;9.294;2022-07-18T05:14:46;100240.78;;;27.54;50.91
18819;BME280;9537;45.594;9.294;2022-07-18T05:15:47;100243.22;;;27.56;51.19
18819;BME280;9537;45.594;9.294;2022-07-18T05:16:49;100243.75;;;27.58;51.18
18819;BME280;9537;45.594;9.294;2022-07-18T05:17:51;100244.31;;;27.60;51.27
18819;BME280;9537;45.594;9.294;2022-07-18T05:18:53;100237.78;;;27.61;51.14
18819;BME280;9537;45.594;9.294;2022-07-18T05:19:54;100239.44;;;27.62;51.06
18819;BME280;9537;45.594;9.294;2022-07-18T05:20:56;100251.34;;;27.66;50.81
18819;BME280;9537;45.594;9.294;2022-07-18T05:21:57;100244.31;;;27.70;50.53
18819;BME280;9537;45.594;9.294;2022-07-18T05:22:59;100249.19;;;27.73;50.21
18819;BME280;9537;45.594;9.294;2022-07-18T05:24:01;100240.78;;;27.75;50.34
18819;BME280;9537;45.594;9.294;2022-07-18T05:25:02;100237.78;;;27.76;49.92
18819;BME280;9537;45.594;9.294;2022-07-18T05:26:05;100241.03;;;27.78;49.73
18819;BME280;9537;45.594;9.294;2022-07-18T05:27:06;100244.06;;;27.82;49.45
18819;BME280;9537;45.594;9.294;2022-07-18T05:28:10;100245.94;;;27.87;49.34
18819;BME280;9537;45.594;9.294;2022-07-18T05:29:11;100244.88;;;27.88;48.99
18819;BME280;9537;45.594;9.294;2022-07-18T05:30:14;100240.50;;;27.92;48.64